sensor_id;sensor_type;location;lat;lon;timestamp;pressure;altitude;pressure_sealevel;temperature;humidity
54453;BME280;40363;52.270;10.546;2023-11-19T00:01:11;76997.00;;;-147.06;100.00
54453;BME280;40363;52.270;10.546;2023-11-19T00:03:40;76986.72;;;-147.06;100.00
54453;BME280;40363;52.270;10.546;2023-11-19T00:06:07;76986.72;;;-147.06;100.00
54453;BME280;40363;52.270;10.546;2023-11-19T00:08:36;76986.72;;;-147.06;100.00
54453;BME280;40363;52.270;10.546;2023-11-19T00:11:03;76976.44;;;-147.06;100.00
54453;BME280;40363;52.270;10.546;2023-11-19T00:13:30;76968.22;;;-147.06;100.00
54453;BME280;40363;52.270;10.546;2023-11-19T00:15:57;76968.22;;;-147.06;100.00
54453;BME280;40363;52.270;10.546;2023-11-19T00:18:23;76962.06;;;-147.06;100.00
54453;BME280;40363;52.270;10.546;2023-11-19T00:20:50;76939.44;;;-147.06;100.00
54453;BME280;40363;52.270;10.546;2023-11-19T00:23:17;76945.63;;;-147.06;100.00
54453;BME280;40363;52.270;10.546;2023-11-19T00:25:45;76941.50;;;-147.06;100.00
54453;BME280;40363;52.270;10.546;2023-11-19T00:28:13;76939.44;;;-147.06;100.00
54453;BME280;40363;52.270;10.546;2023-11-19T00:30:40;76935.34;;;-147.06;100.00
54453;BME280;40363;52.270;10.546;2023-11-19T00:33:07;76929.16;;;-147.06;100.00
54453;BME280;40363;52.270;10.546;2023-11-19T00:35:34;76916.84;;;-147.06;100.00
54453;BME280;40363;52.270;10.546;2023-11-19T00:38:01;76890.13;;;-147.06;100.00
54453;BME280;40363;52.270;10.546;2023-11-19T00:40:28;76890.13;;;-147.06;100.00
54453;BME280;40363;52.270;10.546;2023-11-19T00:42:58;76879.84;;;-147.06;100.00
54453;BME280;40363;52.270;10.546;2023-11-19T00:45:25;76867.50;;;-147.06;100.00
54453;BME280;40363;52.270;10.546;2023-11-19T00:47:55;76861.34;;;-147.06;100.00
54453;BME280;40363;52.270;10.546;2023-11-19T00:50:21;76871.63;;;-147.06;100.00
54453;BME280;40363;52.270;10.546;2023-11-19T00:52:48;76840.78;;;-147.06;100.00
54453;BME280;40363;52.270;10.546;2023-11-19T00:55:15;76834.63;;;-147.06;100.00
54453;BME280;40363;52.270;10.546;2023-11-19T00:57:41;76824.34;;;-147.06;100.00
54453;BME280;40363;52.270;10.546;2023-11-19T01:00:10;76812.00;;;-147.06;100.00
54453;BME280;40363;52.270;10.546;2023-11-19T01:02:43;76797.63;;;-147.06;100.00
54453;BME280;40363;52.270;10.546;2023-11-19T01:05:10;76814.06;;;-147.06;100.00
54453;BME280;40363;52.270;10.546;2023-11-19T01:07:39;76801.72;;;-147.06;100.00
54453;BME280;40363;52.270;10.546;2023-11-19T01:10:06;76809.94;;;-147.06;100.00
54453;BME280;40363;52.270;10.546;2023-11-19T01:12:33;76814.06;;;-147.06;100.00
54453;BME280;40363;52.270;10.546;2023-11-19T01:15:00;76797.63;;;-147.06;100.00
54453;BME280;40363;52.270;10.546;2023-11-19T01:17:28;76797.63;;;-147.06;100.00
54453;BME280;40363;52.270;10.546;2023-11-19T01:19:56;76791.44;;;-147.06;100.00
54453;BME280;40363;52.270;10.546;2023-11-19T01:22:23;76791.44;;;-147.06;100.00
54453;BME280;40363;52.270;10.546;2023-11-19T01:24:50;76787.34;;;-147.06;100.00
54453;BME280;40363;52.270;10.546;2023-11-19T01:27:19;76775.00;;;-147.06;100.00
54453;BME280;40363;52.270;10.546;2023-11-19T01:29:46;76777.06;;;-147.06;100.00
54453;BME280;40363;52.270;10.546;2023-11-19T01:32:13;76770.88;;;-147.06;100.00
54453;BME280;40363;52.270;10.546;2023-11-19T01:34:41;76756.50;;;-147.06;100.00
54453;BME280;40363;52.270;10.546;2023-11-19T01:37:07;76744.16;;;-147.06;100.00
54453;BME280;40363;52.270;10.546;2023-11-19T01:39:38;76740.06;;;-147.06;100.00
54453;BME280;40363;52.270;10.546;2023-11-19T01:42:05;76715.38;;;-147.06;100.00
54453;BME280;40363;52.270;10.546;2023-11-19T01:44:34;76711.28;;;-147.06;100.00
54453;BME280;40363;52.270;10.546;2023-11-19T01:47:02;76715.38;;;-147.06;100.00
54453;BME280;40363;52.270;10.546;2023-11-19T01:49:30;76694.84;;;-147.06;100.00
54453;BME280;40363;52.270;10.546;2023-11-19T01:51:59;76688.66;;;-147.06;100.00
54453;BME280;40363;52.270;10.546;2023-11-19T01:54:27;76692.78;;;-147.06;100.00
54453;BME280;40363;52.270;10.546;2023-11-19T01:56:56;76666.06;;;-147.06;100.00
54453;BME280;40363;52.270;10.546;2023-11-19T01:59:24;76653.72;;;-147.06;100.00
54453;BME280;40363;52.270;10.546;2023-11-19T02:01:53;76653.72;;;-147.06;100.00
54453;BME280;40363;52.270;10.546;2023-11-19T02:04:20;76641.41;;;-147.06;100.00
54453;BME280;40363;52.270;10.546;2023-11-19T02:06:48;76624.94;;;-147.06;100.00
54453;BME280;40363;52.270;10.546;2023-11-19T02:09:19;76622.91;;;-147.06;100.00
54453;BME280;40363;52.270;10.546;2023-11-19T02:11:46;76618.78;;;-147.06;100.00
54453;BME280;40363;52.270;10.546;2023-11-19T02:14:16;76606.44;;;-147.06;100.00
54453;BME280;40363;52.270;10.546;2023-11-19T02:16:43;76577.69;;;-147.06;100.00
54453;BME280;40363;52.270;10.546;2023-11-19T02:19:10;76561.22;;;-147.06;100.00
54453;BME280;40363;52.270;10.546;2023-11-19T02:21:37;76553.00;;;-147.06;100.00
54453;BME280;40363;52.270;10.546;2023-11-19T02:24:06;76534.50;;;-147.06;100.00
54453;BME280;40363;52.270;10.546;2023-11-19T02:26:39;76524.22;;;-147.06;100.00
54453;BME280;40363;52.270;10.546;2023-11-19T02:29:11;76513.97;;;-147.06;100.00
54453;BME280;40363;52.270;10.546;2023-11-19T02:31:38;76505.75;;;-147.06;100.00
54453;BME280;40363;52.270;10.546;2023-11-19T02:34:05;76485.19;;;-147.06;100.00
54453;BME280;40363;52.270;10.546;2023-11-19T02:36:32;76470.78;;;-147.06;100.00
54453;BME280;40363;52.270;10.546;2023-11-19T02:38:58;76466.69;;;-147.06;100.00
54453;BME280;40363;52.270;10.546;2023-11-19T02:41:25;76448.19;;;-147.06;100.00
54453;BME280;40363;52.270;10.546;2023-11-19T02:43:51;76437.91;;;-147.06;100.00
54453;BME280;40363;52.270;10.546;2023-11-19T02:46:20;76431.75;;;-147.06;100.00
54453;BME280;40363;52.270;10.546;2023-11-19T02:48:48;76411.19;;;-147.06;100.00
54453;BME280;40363;52.270;10.546;2023-11-19T02:51:15;76390.63;;;-147.06;100.00
54453;BME280;40363;52.270;10.546;2023-11-19T02:53:44;76378.31;;;-147.06;100.00
54453;BME280;40363;52.270;10.546;2023-11-19T02:56:13;76365.97;;;-147.06;100.00
54453;BME280;40363;52.270;10.546;2023-11-19T02:58:51;76374.19;;;-147.06;100.00
54453;BME280;40363;52.270;10.546;2023-11-19T03:01:23;76359.81;;;-147.06;100.00
54453;BME280;40363;52.270;10.546;2023-11-19T03:03:54;76365.97;;;-147.06;100.00
54453;BME280;40363;52.270;10.546;2023-11-19T03:06:22;76370.09;;;-147.06;100.00
54453;BME280;40363;52.270;10.546;2023-11-19T03:08:48;76355.69;;;-147.06;100.00
54453;BME280;40363;52.270;10.546;2023-11-19T03:11:15;76349.53;;;-147.06;100.00
54453;BME280;40363;52.270;10.546;2023-11-19T03:13:42;76328.97;;;-147.06;100.00
54453;BME280;40363;52.270;10.546;2023-11-19T03:16:08;76339.25;;;-147.06;100.00
54453;BME280;40363;52.270;10.546;2023-11-19T03:18:38;76337.19;;;-147.06;100.00
54453;BME280;40363;52.270;10.546;2023-11-19T03:21:05;76320.75;;;-147.06;100.00
54453;BME280;40363;52.270;10.546;2023-11-19T03:23:32;76331.03;;;-147.06;100.00
54453;BME280;40363;52.270;10.546;2023-11-19T03:25:58;76312.53;;;-147.06;100.00
54453;BME280;40363;52.270;10.546;2023-11-19T03:28:28;76306.38;;;-147.06;100.00
54453;BME280;40363;52.270;10.546;2023-11-19T03:30:56;76298.16;;;-147.06;100.00
54453;BME280;40363;52.270;10.546;2023-11-19T03:33:25;76294.03;;;-147.06;100.00
54453;BME280;40363;52.270;10.546;2023-11-19T03:35:54;76289.94;;;-147.06;100.00
54453;BME280;40363;52.270;10.546;2023-11-19T03:38:22;76287.88;;;-147.06;100.00
54453;BME280;40363;52.270;10.546;2023-11-19T03:40:48;76275.53;;;-147.06;100.00
54453;BME280;40363;52.270;10.546;2023-11-19T03:43:15;76267.31;;;-147.06;100.00
54453;BME280;40363;52.270;10.546;2023-11-19T03:45:42;76259.09;;;-147.06;100.00
54453;BME280;40363;52.270;10.546;2023-11-19T03:48:08;76255.00;;;-147.06;100.00
54453;BME280;40363;52.270;10.546;2023-11-19T03:50:35;76238.53;;;-147.06;100.00
54453;BME280;40363;52.270;10.546;2023-11-19T03:53:05;76242.66;;;-147.06;100.00
54453;BME280;40363;52.270;10.546;2023-11-19T03:55:31;76234.44;;;-147.06;100.00
54453;BME280;40363;52.270;10.546;2023-11-19T03:57:58;76234.44;;;-147.06;100.00
54453;BME280;40363;52.270;10.546;2023-11-19T04:00:25;76240.59;;;-147.06;100.00
54453;BME280;40363;52.270;10.546;2023-11-19T04:02:53;76230.31;;;-147.06;100.00
54453;BME280;40363;52.270;10.546;2023-11-19T04:05:19;76230.31;;;-147.06;100.00
54453;BME280;40363;52.270;10.546;2023-11-19T04:07:46;76222.09;;;-147.06;100.00
54453;BME280;40363;52.270;10.546;2023-11-19T04:10:14;76213.88;;;-147.06;100.00
54453;BME280;40363;52.270;10.546;2023-11-19T04:12:42;76222.09;;;-147.06;100.00
54453;BME280;40363;52.270;10.546;2023-11-19T04:15:11;76211.81;;;-147.06;100.00
54453;BME280;40363;52.270;10.546;2023-11-19T04:17:37;76201.56;;;-147.06;100.00
54453;BME280;40363;52.270;10.546;2023-11-19T04:20:05;76193.31;;;-147.06;100.00
54453;BME280;40363;52.270;10.546;2023-11-19T04:22:35;76185.09;;;-147.06;100.00
54453;BME280;40363;52.270;10.546;2023-11-19T04:25:03;76195.38;;;-147.06;100.00
54453;BME280;40363;52.270;10.546;2023-11-19T04:27:31;76197.44;;;-147.06;100.00
54453;BME280;40363;52.270;10.546;2023-11-19T04:29:58;76199.50;;;-147.06;100.00
54453;BME280;40363;52.270;10.546;2023-11-19T04:32:27;76197.44;;;-147.06;100.00
54453;BME280;40363;52.270;10.546;2023-11-19T04:34:54;76185.09;;;-147.06;100.00
54453;BME280;40363;52.270;10.546;2023-11-19T04:37:21;76183.06;;;-147.06;100.00
54453;BME280;40363;52.270;10.546;2023-11-19T04:39:47;76181.00;;;-147.06;100.00
54453;BME280;40363;52.270;10.546;2023-11-19T04:42:14;76168.66;;;-147.06;100.00
54453;BME280;40363;52.270;10.546;2023-11-19T04:44:44;76164.56;;;-147.06;100.00
54453;BME280;40363;52.270;10.546;2023-11-19T04:47:10;76170.72;;;-147.06;100.00
54453;BME280;40363;52.270;10.546;2023-11-19T04:49:40;76160.44;;;-147.06;100.00
54453;BME280;40363;52.270;10.546;2023-11-19T04:52:08;76160.44;;;-147.06;100.00
54453;BME280;40363;52.270;10.546;2023-11-19T04:54:34;76156.34;;;-147.06;100.00
54453;BME280;40363;52.270;10.546;2023-11-19T04:57:01;76154.28;;;-147.06;100.00
54453;BME280;40363;52.270;10.546;2023-11-19T04:59:28;76148.13;;;-147.06;100.00
54453;BME280;40363;52.270;10.546;2023-11-19T05:01:56;76148.13;;;-147.06;100.00
54453;BME280;40363;52.270;10.546;2023-11-19T05:04:23;76141.94;;;-147.06;100.00
54453;BME280;40363;52.270;10.546;2023-11-19T05:06:49;76144.00;;;-147.06;100.00
54453;BME280;40363;52.270;10.546;2023-11-19T05:09:16;76148.13;;;-147.06;100.00
54453;BME280;40363;52.270;10.546;2023-11-19T05:11:43;76144.00;;;-147.06;100.00
54453;BME280;40363;52.270;10.546;2023-11-19T05:14:10;76146.06;;;-147.06;100.00
54453;BME280;40363;52.270;10.546;2023-11-19T05:16:39;76135.78;;;-147.06;100.00
54453;BME280;40363;52.270;10.546;2023-11-19T05:19:07;76137.84;;;-147.06;100.00
54453;BME280;40363;52.270;10.546;2023-11-19T05:21:34;76133.72;;;-147.06;100.00
54453;BME280;40363;52.270;10.546;2023-11-19T05:24:01;76131.69;;;-147.06;100.00
54453;BME280;40363;52.270;10.546;2023-11-19T05:26:30;76115.22;;;-147.06;100.00
54453;BME280;40363;52.270;10.546;2023-11-19T05:28:56;76119.34;;;-147.06;100.00
54453;BME280;40363;52.270;10.546;2023-11-19T05:31:23;76123.44;;;-147.06;100.00
54453;BME280;40363;52.270;10.546;2023-11-19T05:33:49;76119.34;;;-147.06;100.00
54453;BME280;40363;52.270;10.546;2023-11-19T05:36:18;76102.91;;;-147.06;100.00
54453;BME280;40363;52.270;10.546;2023-11-19T05:38:44;76107.00;;;-147.06;100.00
54453;BME280;40363;52.270;10.546;2023-11-19T05:41:11;76102.91;;;-147.06;100.00
54453;BME280;40363;52.270;10.546;2023-11-19T05:43:38;76107.00;;;-147.06;100.00
54453;BME280;40363;52.270;10.546;2023-11-19T05:46:05;76102.91;;;-147.06;100.00
54453;BME280;40363;52.270;10.546;2023-11-19T05:48:32;76090.56;;;-147.06;100.00
54453;BME280;40363;52.270;10.546;2023-11-19T05:50:59;76086.47;;;-147.06;100.00
54453;BME280;40363;52.270;10.546;2023-11-19T05:53:26;76094.69;;;-147.06;100.00
54453;BME280;40363;52.270;10.546;2023-11-19T05:55:53;76094.69;;;-147.06;100.00
54453;BME280;40363;52.270;10.546;2023-11-19T05:58:23;76092.63;;;-147.06;100.00
54453;BME280;40363;52.270;10.546;2023-11-19T06:00:52;76109.06;;;-147.06;100.00
54453;BME280;40363;52.270;10.546;2023-11-19T06:03:18;76125.50;;;-147.06;100.00
54453;BME280;40363;52.270;10.546;2023-11-19T06:05:46;76123.44;;;-147.06;100.00
54453;BME280;40363;52.270;10.546;2023-11-19T06:08:13;76121.41;;;-147.06;100.00
54453;BME280;40363;52.270;10.546;2023-11-19T06:10:42;76119.34;;;-147.06;100.00
54453;BME280;40363;52.270;10.546;2023-11-19T06:13:11;76127.56;;;-147.06;100.00
54453;BME280;40363;52.270;10.546;2023-11-19T06:15:40;76121.41;;;-147.06;100.00
54453;BME280;40363;52.270;10.546;2023-11-19T06:18:07;76123.44;;;-147.06;100.00
54453;BME280;40363;52.270;10.546;2023-11-19T06:20:34;76107.00;;;-147.06;100.00
54453;BME280;40363;52.270;10.546;2023-11-19T06:23:00;76111.13;;;-147.06;100.00
54453;BME280;40363;52.270;10.546;2023-11-19T06:25:27;76098.78;;;-147.06;100.00
54453;BME280;40363;52.270;10.546;2023-11-19T06:27:55;76094.69;;;-147.06;100.00
54453;BME280;40363;52.270;10.546;2023-11-19T06:30:22;76096.72;;;-147.06;100.00
54453;BME280;40363;52.270;10.546;2023-11-19T06:32:49;76090.56;;;-147.06;100.00
54453;BME280;40363;52.270;10.546;2023-11-19T06:35:15;76086.47;;;-147.06;100.00
54453;BME280;40363;52.270;10.546;2023-11-19T06:37:42;76088.50;;;-147.06;100.00
54453;BME280;40363;52.270;10.546;2023-11-19T06:40:10;76074.13;;;-147.06;100.00
54453;BME280;40363;52.270;10.546;2023-11-19T06:42:37;76078.25;;;-147.06;100.00
54453;BME280;40363;52.270;10.546;2023-11-19T06:45:06;76076.19;;;-147.06;100.00
54453;BME280;40363;52.270;10.546;2023-11-19T06:47:33;76082.34;;;-147.06;100.00
54453;BME280;40363;52.270;10.546;2023-11-19T06:49:59;76080.28;;;-147.06;100.00
54453;BME280;40363;52.270;10.546;2023-11-19T06:52:26;76086.47;;;-147.06;100.00
54453;BME280;40363;52.270;10.546;2023-11-19T06:54:52;76092.63;;;-147.06;100.00
54453;BME280;40363;52.270;10.546;2023-11-19T06:57:19;76092.63;;;-147.06;100.00
54453;BME280;40363;52.270;10.546;2023-11-19T06:59:47;76078.25;;;-147.06;100.00
54453;BME280;40363;52.270;10.546;2023-11-19T07:02:14;76078.25;;;-147.06;100.00
54453;BME280;40363;52.270;10.546;2023-11-19T07:04:41;76063.84;;;-147.06;100.00
54453;BME280;40363;52.270;10.546;2023-11-19T07:07:08;76065.91;;;-147.06;100.00
54453;BME280;40363;52.270;10.546;2023-11-19T07:09:35;76067.97;;;-147.06;100.00
54453;BME280;40363;52.270;10.546;2023-11-19T07:12:03;76070.00;;;-147.06;100.00
54453;BME280;40363;52.270;10.546;2023-11-19T07:14:30;76074.13;;;-147.06;100.00
54453;BME280;40363;52.270;10.546;2023-11-19T07:16:56;76082.34;;;-147.06;100.00
54453;BME280;40363;52.270;10.546;2023-11-19T07:19:26;76078.25;;;-147.06;100.00
54453;BME280;40363;52.270;10.546;2023-11-19T07:21:53;76080.28;;;-147.06;100.00
54453;BME280;40363;52.270;10.546;2023-11-19T07:24:21;76080.28;;;-147.06;100.00
54453;BME280;40363;52.270;10.546;2023-11-19T07:26:48;76078.25;;;-147.06;100.00
54453;BME280;40363;52.270;10.546;2023-11-19T07:29:14;76070.00;;;-147.06;100.00
54453;BME280;40363;52.270;10.546;2023-11-19T07:31:41;76061.78;;;-147.06;100.00
54453;BME280;40363;52.270;10.546;2023-11-19T07:34:09;76059.75;;;-147.06;100.00
54453;BME280;40363;52.270;10.546;2023-11-19T07:36:38;76065.91;;;-147.06;100.00
54453;BME280;40363;52.270;10.546;2023-11-19T07:39:05;76065.91;;;-147.06;100.00
54453;BME280;40363;52.270;10.546;2023-11-19T07:41:31;76057.69;;;-147.06;100.00
54453;BME280;40363;52.270;10.546;2023-11-19T07:43:58;76055.63;;;-147.06;100.00
54453;BME280;40363;52.270;10.546;2023-11-19T07:46:24;76049.47;;;-147.06;100.00
54453;BME280;40363;52.270;10.546;2023-11-19T07:48:52;76041.25;;;-147.06;100.00
54453;BME280;40363;52.270;10.546;2023-11-19T07:51:18;76035.09;;;-147.06;100.00
54453;BME280;40363;52.270;10.546;2023-11-19T07:53:46;76016.59;;;-147.06;100.00
54453;BME280;40363;52.270;10.546;2023-11-19T07:56:13;76006.31;;;-147.06;100.00
54453;BME280;40363;52.270;10.546;2023-11-19T07:58:40;75993.97;;;-147.06;100.00
54453;BME280;40363;52.270;10.546;2023-11-19T08:01:07;75993.97;;;-147.06;100.00
54453;BME280;40363;52.270;10.546;2023-11-19T08:03:33;75989.88;;;-147.06;100.00
54453;BME280;40363;52.270;10.546;2023-11-19T08:06:00;75991.91;;;-147.06;100.00
54453;BME280;40363;52.270;10.546;2023-11-19T08:08:27;75973.44;;;-147.06;100.00
54453;BME280;40363;52.270;10.546;2023-11-19T08:10:56;75959.03;;;-147.06;100.00
54453;BME280;40363;52.270;10.546;2023-11-19T08:13:23;75963.16;;;-147.06;100.00
54453;BME280;40363;52.270;10.546;2023-11-19T08:15:50;75952.88;;;-147.06;100.00
54453;BME280;40363;52.270;10.546;2023-11-19T08:18:17;75926.16;;;-147.06;100.00
54453;BME280;40363;52.270;10.546;2023-11-19T08:20:44;75893.28;;;-147.06;100.00
54453;BME280;40363;52.270;10.546;2023-11-19T08:23:14;75864.50;;;-147.06;100.00
54453;BME280;40363;52.270;10.546;2023-11-19T08:25:40;75833.69;;;-147.06;100.00
54453;BME280;40363;52.270;10.546;2023-11-19T08:28:08;75782.31;;;-147.06;100.00
54453;BME280;40363;52.270;10.546;2023-11-19T08:30:35;75759.69;;;-147.06;100.00
54453;BME280;40363;52.270;10.546;2023-11-19T08:33:01;75778.19;;;-147.06;100.00
54453;BME280;40363;52.270;10.546;2023-11-19T08:35:29;75753.53;;;-147.06;100.00
54453;BME280;40363;52.270;10.546;2023-11-19T08:37:55;75757.66;;;-147.06;100.00
54453;BME280;40363;52.270;10.546;2023-11-19T08:40:22;75790.53;;;-147.06;100.00
54453;BME280;40363;52.270;10.546;2023-11-19T08:42:49;75798.75;;;-147.06;100.00
54453;BME280;40363;52.270;10.546;2023-11-19T08:45:18;75733.00;;;-147.06;100.00
54453;BME280;40363;52.270;10.546;2023-11-19T08:47:44;75710.38;;;-147.06;100.00
54453;BME280;40363;52.270;10.546;2023-11-19T08:50:11;75679.56;;;-147.06;99.47
54453;BME280;40363;52.270;10.546;2023-11-19T08:52:38;75671.34;;;-147.06;99.10
54453;BME280;40363;52.270;10.546;2023-11-19T08:55:05;75716.53;;;-147.06;99.78
54453;BME280;40363;52.270;10.546;2023-11-19T08:57:32;75679.56;;;-147.06;98.11
54453;BME280;40363;52.270;10.546;2023-11-19T08:59:59;75712.44;;;-147.06;99.05
54453;BME280;40363;52.270;10.546;2023-11-19T09:02:27;75759.69;;;-147.06;100.00
54453;BME280;40363;52.270;10.546;2023-11-19T09:04:54;75782.31;;;-147.06;100.00
54453;BME280;40363;52.270;10.546;2023-11-19T09:07:20;75790.53;;;-147.06;100.00
54453;BME280;40363;52.270;10.546;2023-11-19T09:09:47;75813.13;;;-147.06;100.00
54453;BME280;40363;52.270;10.546;2023-11-19T09:12:14;75823.41;;;-147.06;100.00
54453;BME280;40363;52.270;10.546;2023-11-19T09:14:41;75827.50;;;-147.06;100.00
54453;BME280;40363;52.270;10.546;2023-11-19T09:17:07;75811.06;;;-147.06;100.00
54453;BME280;40363;52.270;10.546;2023-11-19T09:19:36;75811.06;;;-147.06;100.00
54453;BME280;40363;52.270;10.546;2023-11-19T09:22:03;75802.84;;;-147.06;100.00
54453;BME280;40363;52.270;10.546;2023-11-19T09:24:29;75825.47;;;-147.06;100.00
54453;BME280;40363;52.270;10.546;2023-11-19T09:26:56;75831.63;;;-147.06;100.00
54453;BME280;40363;52.270;10.546;2023-11-19T09:29:23;75827.50;;;-147.06;100.00
54453;BME280;40363;52.270;10.546;2023-11-19T09:31:50;75823.41;;;-147.06;100.00
54453;BME280;40363;52.270;10.546;2023-11-19T09:34:16;75833.69;;;-147.06;100.00
54453;BME280;40363;52.270;10.546;2023-11-19T09:36:48;75833.69;;;-147.06;100.00
54453;BME280;40363;52.270;10.546;2023-11-19T09:39:14;75839.84;;;-147.06;100.00
54453;BME280;40363;52.270;10.546;2023-11-19T09:41:43;75837.78;;;-147.06;100.00
54453;BME280;40363;52.270;10.546;2023-11-19T09:44:10;75835.75;;;-147.06;100.00
54453;BME280;40363;52.270;10.546;2023-11-19T09:46:37;75835.75;;;-147.06;100.00
54453;BME280;40363;52.270;10.546;2023-11-19T09:49:05;75839.84;;;-147.06;100.00
54453;BME280;40363;52.270;10.546;2023-11-19T09:51:34;75825.47;;;-147.06;100.00
54453;BME280;40363;52.270;10.546;2023-11-19T09:54:02;75827.50;;;-147.06;100.00
54453;BME280;40363;52.270;10.546;2023-11-19T09:56:29;75823.41;;;-147.06;99.22
54453;BME280;40363;52.270;10.546;2023-11-19T09:58:56;75813.13;;;-147.06;98.97
54453;BME280;40363;52.270;10.546;2023-11-19T10:01:23;75800.81;;;-147.06;99.00
54453;BME280;40363;52.270;10.546;2023-11-19T10:03:50;75778.19;;;-147.06;98.27
54453;BME280;40363;52.270;10.546;2023-11-19T10:06:17;75769.97;;;-147.06;98.46
54453;BME280;40363;52.270;10.546;2023-11-19T10:08:44;75735.03;;;-147.06;93.74
54453;BME280;40363;52.270;10.546;2023-11-19T10:11:12;75755.59;;;-147.06;94.71
54453;BME280;40363;52.270;10.546;2023-11-19T10:13:40;75755.59;;;-147.06;94.49
54453;BME280;40363;52.270;10.546;2023-11-19T10:16:08;75730.94;;;-147.06;96.85
54453;BME280;40363;52.270;10.546;2023-11-19T10:18:37;75718.59;;;-147.06;96.20
54453;BME280;40363;52.270;10.546;2023-11-19T10:21:04;75718.59;;;-147.06;95.77
54453;BME280;40363;52.270;10.546;2023-11-19T10:23:47;75724.75;;;-147.06;96.14
54453;BME280;40363;52.270;10.546;2023-11-19T10:26:16;75737.09;;;-147.06;95.30
54453;BME280;40363;52.270;10.546;2023-11-19T10:28:43;75735.03;;;-147.06;95.57
54453;BME280;40363;52.270;10.546;2023-11-19T10:31:13;75726.81;;;-147.06;95.29
54453;BME280;40363;52.270;10.546;2023-11-19T10:33:40;75728.88;;;-147.06;95.63
54453;BME280;40363;52.270;10.546;2023-11-19T10:36:07;75733.00;;;-147.06;95.63
54453;BME280;40363;52.270;10.546;2023-11-19T10:38:35;75745.31;;;-147.06;96.48
54453;BME280;40363;52.270;10.546;2023-11-19T10:41:02;75757.66;;;-147.06;97.60
54453;BME280;40363;52.270;10.546;2023-11-19T10:43:31;75757.66;;;-147.06;96.89
54453;BME280;40363;52.270;10.546;2023-11-19T10:46:10;75774.09;;;-147.06;97.67
54453;BME280;40363;52.270;10.546;2023-11-19T10:48:38;75765.88;;;-147.06;96.79
54453;BME280;40363;52.270;10.546;2023-11-19T10:51:06;75743.25;;;-147.06;95.87
54453;BME280;40363;52.270;10.546;2023-11-19T10:53:37;75749.44;;;-147.06;96.85
54453;BME280;40363;52.270;10.546;2023-11-19T10:56:10;75724.75;;;-147.06;95.04
54453;BME280;40363;52.270;10.546;2023-11-19T10:58:44;75720.66;;;-147.06;94.86
54453;BME280;40363;52.270;10.546;2023-11-19T11:01:18;75714.50;;;-147.06;94.31
54453;BME280;40363;52.270;10.546;2023-11-19T11:03:46;75693.94;;;-147.06;94.11
54453;BME280;40363;52.270;10.546;2023-11-19T11:06:18;75663.13;;;-147.06;92.69
54453;BME280;40363;52.270;10.546;2023-11-19T11:08:47;75640.50;;;-147.06;91.20
54453;BME280;40363;52.270;10.546;2023-11-19T11:11:15;75669.28;;;-147.06;91.12
54453;BME280;40363;52.270;10.546;2023-11-19T11:13:47;75669.28;;;-147.06;91.07
54453;BME280;40363;52.270;10.546;2023-11-19T11:16:15;75685.72;;;-147.06;91.70
54453;BME280;40363;52.270;10.546;2023-11-19T11:18:44;75702.16;;;-147.06;91.80
54453;BME280;40363;52.270;10.546;2023-11-19T11:21:14;75704.22;;;-147.06;91.90
54453;BME280;40363;52.270;10.546;2023-11-19T11:24:10;75700.09;;;-147.06;91.61
54453;BME280;40363;52.270;10.546;2023-11-19T11:26:53;75720.66;;;-147.06;92.36
54453;BME280;40363;52.270;10.546;2023-11-19T11:29:30;75726.81;;;-147.06;93.01
54453;BME280;40363;52.270;10.546;2023-11-19T11:32:12;75730.94;;;-147.06;93.55
54453;BME280;40363;52.270;10.546;2023-11-19T11:34:58;75728.88;;;-147.06;93.67
54453;BME280;40363;52.270;10.546;2023-11-19T11:37:32;75728.88;;;-147.06;93.87
54453;BME280;40363;52.270;10.546;2023-11-19T11:40:01;75733.00;;;-147.06;94.11
54453;BME280;40363;52.270;10.546;2023-11-19T11:42:34;75728.88;;;-147.06;93.98
54453;BME280;40363;52.270;10.546;2023-11-19T11:45:04;75763.81;;;-147.06;94.99
54453;BME280;40363;52.270;10.546;2023-11-19T11:48:11;75741.22;;;-147.06;95.32
54453;BME280;40363;52.270;10.546;2023-11-19T11:50:52;75743.25;;;-147.06;95.34
54453;BME280;40363;52.270;10.546;2023-11-19T11:53:21;75739.16;;;-147.06;95.47
54453;BME280;40363;52.270;10.546;2023-11-19T11:55:57;75741.22;;;-147.06;95.45
54453;BME280;40363;52.270;10.546;2023-11-19T11:58:30;75739.16;;;-147.06;94.55
54453;BME280;40363;52.270;10.546;2023-11-19T12:01:01;75735.03;;;-147.06;94.86
54453;BME280;40363;52.270;10.546;2023-11-19T12:03:29;75722.72;;;-147.06;94.70
54453;BME280;40363;52.270;10.546;2023-11-19T12:05:55;75737.09;;;-147.06;94.69
54453;BME280;40363;52.270;10.546;2023-11-19T12:08:25;75733.00;;;-147.06;95.00
54453;BME280;40363;52.270;10.546;2023-11-19T12:10:54;75743.25;;;-147.06;94.81
54453;BME280;40363;52.270;10.546;2023-11-19T12:13:23;75722.72;;;-147.06;94.45
54453;BME280;40363;52.270;10.546;2023-11-19T12:16:10;75722.72;;;-147.06;93.48
54453;BME280;40363;52.270;10.546;2023-11-19T12:18:39;75714.50;;;-147.06;93.82
54453;BME280;40363;52.270;10.546;2023-11-19T12:21:10;75704.22;;;-147.06;93.28
54453;BME280;40363;52.270;10.546;2023-11-19T12:23:45;75708.31;;;-147.06;93.29
54453;BME280;40363;52.270;10.546;2023-11-19T12:26:33;75710.38;;;-147.06;93.00
54453;BME280;40363;52.270;10.546;2023-11-19T12:29:09;75714.50;;;-147.06;92.64